Macomb, IL

12:22 AM CDT on October 22, 2017 (GMT -0500)
Macomb Municipal

Weather History for KMQB - April, 2014

Change the Weather History Date:

Tuesday, April 8, 2014

  Actual Average (KBRL) Record (KBRL)
Temperature  
Mean Temperature 49 °F -  
Max Temperature 61 °F 66 °F 84 °F (2001)
Min Temperature 38 °F 41 °F 17 °F (1972)
Degree Days  
Heating Degree Days 16    
Moisture  
Dew Point 34 °F    
Average Humidity 61    
Maximum Humidity 90    
Minimum Humidity 30    
Precipitation  
Precipitation 0.00 in - - ()
Sea Level Pressure  
Sea Level Pressure 29.87 in    
Wind  
Wind Speed 12 mph (NW)    
Max Wind Speed 23 mph    
Max Gust Speed 31 mph    
Visibility 10 miles    
Events      
Averages and records for this station are not official NWS values.
T = Trace of Precipitation, MM = Missing Value Source: NWS Daily Summary

Daily Weather History Graph

Daily Weather History Graph

Search for Another Location

Airport or City:

Trip Planner

Search our weather history database for the weather conditions in past years. The results will help you decide how hot, cold, wet, or windy it might be!

Date:

Astronomy

Apr. 08, 2014 Rise Set
Actual Time 6:34 AM CDT 7:34 PM CDT
Civil Twilight 6:07 AM CDT 8:02 PM CDT
Nautical Twilight 5:34 AM CDT 8:35 PM CDT
Astronomical Twilight 4:59 AM CDT 9:10 PM CDT
Moon 1:26 PM CDT (4/8) 2:49 AM CDT (4/8)
Length of Visible Light 13h 55m
Length of Day
12h 59m
Waxing Gibbous, 63% of the Moon is Illuminated
Apr 8
Waxing Gibbous
Apr 15
Full
Apr 22
Last Quarter
Apr 29
New
May 6
First Quarter

Hourly Weather History & Observations

Time (CDT) Temp. Windchill Dew Point Humidity Pressure Visibility Wind Dir Wind Speed Gust Speed Precip Events Conditions
12:15 AM 45.0 °F 40.1 °F 40.5 °F 84% 29.75 in 10.0 mi WNW 9.2 mph - N/A   Mostly Cloudy
12:35 AM 45.9 °F 41.2 °F 41.0 °F 83% 29.75 in 10.0 mi WNW 9.2 mph - N/A   Overcast
1:15 AM 45.5 °F 40.3 °F 40.3 °F 82% 29.76 in 10.0 mi NW 10.4 mph - N/A   Mostly Cloudy
1:35 AM 45.5 °F 39.9 °F 40.1 °F 81% 29.76 in 10.0 mi NW 11.5 mph - N/A   Overcast
1:55 AM 45.5 °F 40.3 °F 40.1 °F 81% 29.76 in 10.0 mi WNW 10.4 mph - N/A   Overcast
2:15 AM 44.6 °F 40.7 °F 40.1 °F 84% 29.76 in 10.0 mi WNW 6.9 mph - N/A   Overcast
2:35 AM 44.6 °F 38.8 °F 39.7 °F 83% 29.76 in 10.0 mi NW 11.5 mph - N/A   Overcast
2:55 AM 44.8 °F 39.4 °F 39.7 °F 82% 29.76 in 10.0 mi NW 10.4 mph - N/A   Overcast
3:15 AM 43.2 °F 37.9 °F 38.7 °F 84% 29.76 in 10.0 mi WNW 9.2 mph - N/A   Mostly Cloudy
3:35 AM 43.2 °F 37.0 °F 38.8 °F 85% 29.76 in 10.0 mi NW 11.5 mph - N/A   Scattered Clouds
3:55 AM 41.9 °F 35.9 °F 38.3 °F 87% 29.76 in 10.0 mi NW 10.4 mph - N/A   Clear
4:15 AM 41.5 °F 35.4 °F 38.3 °F 88% 29.76 in 10.0 mi NW 10.4 mph - N/A   Clear
4:35 AM 41.0 °F 34.3 °F 37.9 °F 89% 29.76 in 10.0 mi WNW 11.5 mph - N/A   Clear
4:55 AM 40.5 °F 34.1 °F 37.6 °F 89% 29.76 in 10.0 mi WNW 10.4 mph - N/A   Clear
5:15 AM 40.3 °F 33.4 °F 37.4 °F 89% 29.77 in 10.0 mi NW 11.5 mph - N/A   Clear
5:35 AM 39.7 °F 32.7 °F 36.9 °F 89% 29.77 in 10.0 mi WNW 11.5 mph - N/A   Clear
5:55 AM 39.6 °F 33.0 °F 36.5 °F 89% 29.78 in 10.0 mi WNW 10.4 mph - N/A   Clear
6:15 AM 39.6 °F 32.5 °F 36.5 °F 89% 29.79 in 10.0 mi NW 11.5 mph - N/A   Clear
6:35 AM 39.4 °F 32.3 °F 36.0 °F 88% 29.80 in 10.0 mi NW 11.5 mph - N/A   Clear
6:55 AM 38.5 °F 32.1 °F 35.8 °F 90% 29.80 in 10.0 mi WNW 9.2 mph - N/A   Clear
7:15 AM 39.0 °F 31.8 °F 36.1 °F 89% 29.81 in 10.0 mi NW 11.5 mph - N/A   Clear
7:35 AM 41.0 °F 35.2 °F 37.0 °F 86% 29.82 in 10.0 mi NW 9.2 mph 16.1 mph N/A   Clear
7:55 AM 41.9 °F 35.9 °F 37.4 °F 84% 29.82 in 10.0 mi NNW 10.4 mph - N/A   Clear
8:15 AM 43.3 °F 36.8 °F 38.3 °F 82% 29.83 in 10.0 mi NNW 12.7 mph - N/A   Clear
8:35 AM 45.5 °F 39.2 °F 39.2 °F 79% 29.83 in 10.0 mi NNW 13.8 mph - N/A   Clear
8:55 AM 46.9 °F - 39.6 °F 76% 29.83 in 10.0 mi NNW 13.8 mph - N/A   Clear
9:15 AM 48.7 °F - 39.7 °F 71% 29.84 in 10.0 mi NNW 11.5 mph - N/A   Clear
9:35 AM 49.8 °F - 39.6 °F 68% 29.85 in 10.0 mi NNW 13.8 mph 18.4 mph N/A   Clear
9:55 AM 50.7 °F - 39.4 °F 65% 29.86 in 10.0 mi NNW 13.8 mph 18.4 mph N/A   Clear
10:15 AM 52.0 °F - 39.6 °F 63% 29.86 in 10.0 mi NW 15.0 mph 19.6 mph N/A   Clear
10:35 AM 53.4 °F - 39.2 °F 59% 29.87 in 10.0 mi NNW 10.4 mph 19.6 mph N/A   Clear
10:55 AM 54.5 °F - 38.1 °F 54% 29.87 in 10.0 mi North 13.8 mph 21.9 mph N/A   Clear
11:15 AM 55.9 °F - 37.4 °F 50% 29.87 in 10.0 mi NNW 16.1 mph 20.7 mph N/A   Clear
11:35 AM 56.1 °F - 33.4 °F 42% 29.87 in 10.0 mi NNW 21.9 mph 25.3 mph N/A   Clear
11:55 AM 57.0 °F - 32.9 °F 40% 29.88 in 10.0 mi NNW 15.0 mph 23.0 mph N/A   Clear
12:15 PM 57.4 °F - 31.1 °F 37% 29.87 in 10.0 mi NNW 18.4 mph 28.8 mph N/A   Clear
12:35 PM 58.1 °F - 30.6 °F 35% 29.87 in 10.0 mi NW 16.1 mph 26.5 mph N/A   Clear
12:55 PM 58.6 °F - 30.9 °F 35% 29.88 in 10.0 mi NNW 18.4 mph 27.6 mph N/A   Clear
1:15 PM 59.0 °F - 30.6 °F 34% 29.87 in 10.0 mi NNW 15.0 mph 27.6 mph N/A   Clear
1:35 PM 59.4 °F - 28.9 °F 31% 29.87 in 10.0 mi NNW 18.4 mph 25.3 mph N/A   Clear
1:55 PM 59.5 °F - 28.9 °F 31% 29.87 in 10.0 mi NNW 15.0 mph 27.6 mph N/A   Clear
2:15 PM 60.3 °F - 29.1 °F 31% 29.88 in 10.0 mi NW 23.0 mph 28.8 mph N/A   Clear
2:35 PM 60.1 °F - 28.6 °F 30% 29.87 in 10.0 mi NNW 18.4 mph 29.9 mph N/A   Scattered Clouds
2:55 PM 60.8 °F - 29.3 °F 30% 29.87 in 10.0 mi NNW 20.7 mph 27.6 mph N/A   Scattered Clouds
3:15 PM 60.3 °F - 28.8 °F 30% 29.87 in 10.0 mi NW 20.7 mph 27.6 mph N/A   Scattered Clouds
3:35 PM 60.1 °F - 28.4 °F 30% 29.88 in 10.0 mi NNW 19.6 mph 26.5 mph N/A   Scattered Clouds
3:55 PM 60.1 °F - 29.1 °F 31% 29.88 in 10.0 mi NNW 21.9 mph 28.8 mph N/A   Scattered Clouds
4:15 PM 59.9 °F - 28.4 °F 30% 29.88 in 10.0 mi NNW 18.4 mph 31.1 mph N/A   Scattered Clouds
4:35 PM 59.7 °F - 28.6 °F 31% 29.88 in 10.0 mi NNW 16.1 mph 26.5 mph N/A   Clear
4:55 PM 59.9 °F - 28.6 °F 30% 29.89 in 10.0 mi NNW 21.9 mph 27.6 mph N/A   Clear
5:15 PM 59.2 °F - 28.0 °F 31% 29.90 in 10.0 mi NW 20.7 mph - N/A   Scattered Clouds
5:35 PM 58.6 °F - 27.3 °F 30% 29.91 in 10.0 mi NNW 19.6 mph 26.5 mph N/A   Clear
5:55 PM 58.3 °F - 27.7 °F 31% 29.92 in 10.0 mi NNW 16.1 mph 25.3 mph N/A   Clear
6:15 PM 57.6 °F - 27.9 °F 32% 29.92 in 10.0 mi NNW 17.3 mph - N/A   Clear
6:35 PM 56.8 °F - 28.6 °F 34% 29.93 in 10.0 mi NW 16.1 mph - N/A   Clear
6:55 PM 55.9 °F - 26.8 °F 33% 29.94 in 10.0 mi NW 15.0 mph 21.9 mph N/A   Clear
7:15 PM 54.9 °F - 25.9 °F 33% 29.95 in 10.0 mi NW 11.5 mph 16.1 mph N/A   Clear
7:35 PM 52.3 °F - 28.4 °F 40% 29.95 in 10.0 mi NW 10.4 mph - N/A   Clear
7:55 PM 50.0 °F - 30.2 °F 47% 29.96 in 10.0 mi NW 10.4 mph - N/A   Clear
8:15 PM 46.9 °F - 31.6 °F 55% 29.97 in 10.0 mi NW 9.2 mph - N/A   Clear
8:35 PM 46.4 °F 41.5 °F 32.0 °F 57% 29.97 in 10.0 mi WNW 10.4 mph - N/A   Clear
8:55 PM 45.9 °F 40.8 °F 32.0 °F 58% 29.99 in 10.0 mi NW 10.4 mph - N/A   Clear
9:15 PM 44.8 °F 39.4 °F 32.2 °F 61% 29.99 in 10.0 mi NW 10.4 mph - N/A   Clear
9:35 PM 44.4 °F 39.0 °F 32.9 °F 64% 30.00 in 10.0 mi WNW 10.4 mph - N/A   Clear
9:55 PM 43.5 °F 38.3 °F 33.1 °F 67% 30.00 in 10.0 mi NW 9.2 mph - N/A   Clear
10:15 PM 43.2 °F 37.4 °F 33.3 °F 68% 30.01 in 10.0 mi WNW 10.4 mph - N/A   Clear
10:35 PM 42.4 °F 36.5 °F 33.4 °F 70% 30.01 in 10.0 mi NW 10.4 mph - N/A   Clear
10:55 PM 41.4 °F 35.7 °F 33.3 °F 73% 30.01 in 10.0 mi WNW 9.2 mph - N/A   Clear
11:15 PM 40.3 °F 34.4 °F 33.1 °F 75% 30.01 in 10.0 mi WNW 9.2 mph - N/A   Clear
11:35 PM 41.2 °F 35.0 °F 34.0 °F 76% 30.02 in 10.0 mi WNW 10.4 mph - N/A   Clear
11:55 PM 41.5 °F 35.4 °F 34.7 °F 77% 30.02 in 10.0 mi WNW 10.4 mph - N/A   Clear